sensor_id;sensor_type;location;lat;lon;timestamp;P1;durP1;ratioP1;P2;durP2;ratioP2
78053;SDS011;67726;45.636;11.752;2023-06-14T00:00:50;11.05;;;6.40;;
78053;SDS011;67726;45.636;11.752;2023-06-14T00:03:18;9.15;;;5.72;;
78053;SDS011;67726;45.636;11.752;2023-06-14T00:05:47;9.60;;;5.72;;
78053;SDS011;67726;45.636;11.752;2023-06-14T00:08:13;9.13;;;5.70;;
78053;SDS011;67726;45.636;11.752;2023-06-14T00:10:40;12.77;;;6.57;;
78053;SDS011;67726;45.636;11.752;2023-06-14T00:13:07;9.85;;;5.68;;
78053;SDS011;67726;45.636;11.752;2023-06-14T00:15:34;11.18;;;5.88;;
78053;SDS011;67726;45.636;11.752;2023-06-14T00:18:00;8.70;;;5.95;;
78053;SDS011;67726;45.636;11.752;2023-06-14T00:20:27;10.30;;;6.57;;
78053;SDS011;67726;45.636;11.752;2023-06-14T00:22:53;9.63;;;6.03;;
78053;SDS011;67726;45.636;11.752;2023-06-14T00:25:23;12.13;;;7.22;;
78053;SDS011;67726;45.636;11.752;2023-06-14T00:27:52;9.82;;;6.80;;
78053;SDS011;67726;45.636;11.752;2023-06-14T00:30:18;10.27;;;6.97;;
78053;SDS011;67726;45.636;11.752;2023-06-14T00:32:45;10.27;;;6.17;;
78053;SDS011;67726;45.636;11.752;2023-06-14T00:35:11;10.30;;;6.75;;
78053;SDS011;67726;45.636;11.752;2023-06-14T00:37:37;9.75;;;6.72;;
78053;SDS011;67726;45.636;11.752;2023-06-14T00:40:03;11.75;;;7.10;;
78053;SDS011;67726;45.636;11.752;2023-06-14T00:42:29;14.77;;;7.60;;
78053;SDS011;67726;45.636;11.752;2023-06-14T00:44:55;12.18;;;7.20;;
78053;SDS011;67726;45.636;11.752;2023-06-14T00:47:21;11.50;;;7.55;;
78053;SDS011;67726;45.636;11.752;2023-06-14T00:49:48;11.63;;;8.30;;
78053;SDS011;67726;45.636;11.752;2023-06-14T00:52:17;11.40;;;7.80;;
78053;SDS011;67726;45.636;11.752;2023-06-14T00:54:44;12.25;;;8.23;;
78053;SDS011;67726;45.636;11.752;2023-06-14T00:57:10;12.80;;;8.20;;
78053;SDS011;67726;45.636;11.752;2023-06-14T00:59:47;14.82;;;8.63;;
78053;SDS011;67726;45.636;11.752;2023-06-14T01:02:13;12.23;;;8.23;;
78053;SDS011;67726;45.636;11.752;2023-06-14T01:04:40;13.10;;;8.43;;
78053;SDS011;67726;45.636;11.752;2023-06-14T01:10:07;12.63;;;8.80;;
78053;SDS011;67726;45.636;11.752;2023-06-14T01:12:48;13.02;;;9.13;;
78053;SDS011;67726;45.636;11.752;2023-06-14T01:15:22;15.37;;;9.07;;
78053;SDS011;67726;45.636;11.752;2023-06-14T01:17:49;11.68;;;8.13;;
78053;SDS011;67726;45.636;11.752;2023-06-14T01:20:16;16.23;;;10.13;;
78053;SDS011;67726;45.636;11.752;2023-06-14T01:22:51;14.50;;;9.10;;
78053;SDS011;67726;45.636;11.752;2023-06-14T01:25:18;13.82;;;9.60;;
78053;SDS011;67726;45.636;11.752;2023-06-14T01:27:58;13.37;;;7.83;;
78053;SDS011;67726;45.636;11.752;2023-06-14T01:30:25;11.40;;;7.68;;
78053;SDS011;67726;45.636;11.752;2023-06-14T01:32:53;12.43;;;7.75;;
78053;SDS011;67726;45.636;11.752;2023-06-14T01:35:20;10.88;;;7.03;;
78053;SDS011;67726;45.636;11.752;2023-06-14T01:37:47;13.20;;;8.13;;
78053;SDS011;67726;45.636;11.752;2023-06-14T01:40:14;12.43;;;8.07;;
78053;SDS011;67726;45.636;11.752;2023-06-14T01:42:42;10.77;;;7.60;;
78053;SDS011;67726;45.636;11.752;2023-06-14T01:45:09;13.13;;;8.75;;
78053;SDS011;67726;45.636;11.752;2023-06-14T01:47:36;13.48;;;7.90;;
78053;SDS011;67726;45.636;11.752;2023-06-14T01:50:02;14.73;;;8.57;;
78053;SDS011;67726;45.636;11.752;2023-06-14T01:52:28;12.98;;;7.55;;
78053;SDS011;67726;45.636;11.752;2023-06-14T01:54:54;12.30;;;8.10;;
78053;SDS011;67726;45.636;11.752;2023-06-14T01:57:20;12.67;;;8.30;;
78053;SDS011;67726;45.636;11.752;2023-06-14T01:59:47;12.00;;;7.53;;
78053;SDS011;67726;45.636;11.752;2023-06-14T02:02:14;12.38;;;8.07;;
78053;SDS011;67726;45.636;11.752;2023-06-14T02:04:40;11.13;;;7.50;;
78053;SDS011;67726;45.636;11.752;2023-06-14T02:07:06;12.30;;;6.68;;
78053;SDS011;67726;45.636;11.752;2023-06-14T02:09:33;11.15;;;7.15;;
78053;SDS011;67726;45.636;11.752;2023-06-14T02:11:59;11.63;;;7.23;;
78053;SDS011;67726;45.636;11.752;2023-06-14T02:14:24;11.00;;;7.20;;
78053;SDS011;67726;45.636;11.752;2023-06-14T02:16:51;13.98;;;7.50;;
78053;SDS011;67726;45.636;11.752;2023-06-14T02:19:18;13.23;;;7.30;;
78053;SDS011;67726;45.636;11.752;2023-06-14T02:21:44;11.52;;;7.22;;
78053;SDS011;67726;45.636;11.752;2023-06-14T02:24:10;10.90;;;6.60;;
78053;SDS011;67726;45.636;11.752;2023-06-14T02:26:36;12.00;;;7.50;;
78053;SDS011;67726;45.636;11.752;2023-06-14T02:29:06;12.73;;;8.17;;
78053;SDS011;67726;45.636;11.752;2023-06-14T02:31:35;11.82;;;7.88;;
78053;SDS011;67726;45.636;11.752;2023-06-14T02:34:00;12.23;;;7.82;;
78053;SDS011;67726;45.636;11.752;2023-06-14T02:36:26;11.17;;;7.13;;
78053;SDS011;67726;45.636;11.752;2023-06-14T02:38:54;9.93;;;6.93;;
78053;SDS011;67726;45.636;11.752;2023-06-14T02:41:22;14.55;;;8.02;;
78053;SDS011;67726;45.636;11.752;2023-06-14T02:43:51;11.82;;;7.18;;
78053;SDS011;67726;45.636;11.752;2023-06-14T02:46:17;11.27;;;6.72;;
78053;SDS011;67726;45.636;11.752;2023-06-14T02:48:43;11.27;;;7.07;;
78053;SDS011;67726;45.636;11.752;2023-06-14T02:51:08;9.52;;;6.38;;
78053;SDS011;67726;45.636;11.752;2023-06-14T02:53:34;11.48;;;7.82;;
78053;SDS011;67726;45.636;11.752;2023-06-14T02:56:01;12.40;;;7.10;;
78053;SDS011;67726;45.636;11.752;2023-06-14T02:58:28;11.73;;;7.78;;
78053;SDS011;67726;45.636;11.752;2023-06-14T03:00:54;13.60;;;7.80;;
78053;SDS011;67726;45.636;11.752;2023-06-14T03:03:20;12.13;;;7.70;;
78053;SDS011;67726;45.636;11.752;2023-06-14T03:05:47;11.98;;;7.85;;
78053;SDS011;67726;45.636;11.752;2023-06-14T03:08:17;14.75;;;8.00;;
78053;SDS011;67726;45.636;11.752;2023-06-14T03:10:45;11.02;;;6.90;;
78053;SDS011;67726;45.636;11.752;2023-06-14T03:13:11;12.05;;;7.50;;
78053;SDS011;67726;45.636;11.752;2023-06-14T03:15:37;12.37;;;7.63;;
78053;SDS011;67726;45.636;11.752;2023-06-14T03:18:07;11.88;;;7.32;;
78053;SDS011;67726;45.636;11.752;2023-06-14T03:20:34;12.20;;;7.75;;
78053;SDS011;67726;45.636;11.752;2023-06-14T03:23:01;12.65;;;7.43;;
78053;SDS011;67726;45.636;11.752;2023-06-14T03:25:27;12.38;;;7.63;;
78053;SDS011;67726;45.636;11.752;2023-06-14T03:27:56;11.17;;;6.97;;
78053;SDS011;67726;45.636;11.752;2023-06-14T03:30:22;15.30;;;7.93;;
78053;SDS011;67726;45.636;11.752;2023-06-14T03:32:48;12.75;;;7.90;;
78053;SDS011;67726;45.636;11.752;2023-06-14T03:35:14;11.27;;;7.83;;
78053;SDS011;67726;45.636;11.752;2023-06-14T03:37:46;13.35;;;7.53;;
78053;SDS011;67726;45.636;11.752;2023-06-14T03:40:12;11.13;;;7.10;;
78053;SDS011;67726;45.636;11.752;2023-06-14T03:42:40;12.48;;;7.60;;
78053;SDS011;67726;45.636;11.752;2023-06-14T03:45:06;12.23;;;7.83;;
78053;SDS011;67726;45.636;11.752;2023-06-14T03:47:32;15.75;;;7.78;;
78053;SDS011;67726;45.636;11.752;2023-06-14T03:49:58;13.07;;;7.97;;
78053;SDS011;67726;45.636;11.752;2023-06-14T03:52:25;12.85;;;7.90;;
78053;SDS011;67726;45.636;11.752;2023-06-14T03:54:51;12.50;;;7.93;;
78053;SDS011;67726;45.636;11.752;2023-06-14T03:57:17;14.25;;;7.90;;
78053;SDS011;67726;45.636;11.752;2023-06-14T03:59:42;13.50;;;7.82;;
78053;SDS011;67726;45.636;11.752;2023-06-14T04:02:08;13.63;;;8.53;;
78053;SDS011;67726;45.636;11.752;2023-06-14T04:04:40;16.70;;;7.65;;
78053;SDS011;67726;45.636;11.752;2023-06-14T04:07:09;11.77;;;7.10;;
78053;SDS011;67726;45.636;11.752;2023-06-14T04:09:36;10.93;;;7.22;;
78053;SDS011;67726;45.636;11.752;2023-06-14T04:12:02;12.20;;;7.00;;
78053;SDS011;67726;45.636;11.752;2023-06-14T04:14:28;14.00;;;7.25;;
78053;SDS011;67726;45.636;11.752;2023-06-14T04:16:55;11.88;;;7.55;;
78053;SDS011;67726;45.636;11.752;2023-06-14T04:19:21;12.10;;;7.60;;
78053;SDS011;67726;45.636;11.752;2023-06-14T04:21:47;11.98;;;6.93;;
78053;SDS011;67726;45.636;11.752;2023-06-14T04:24:12;12.73;;;7.13;;
78053;SDS011;67726;45.636;11.752;2023-06-14T04:26:41;10.13;;;6.20;;
78053;SDS011;67726;45.636;11.752;2023-06-14T04:29:09;9.57;;;6.43;;
78053;SDS011;67726;45.636;11.752;2023-06-14T04:31:39;14.00;;;7.07;;
78053;SDS011;67726;45.636;11.752;2023-06-14T04:34:05;10.07;;;5.95;;
78053;SDS011;67726;45.636;11.752;2023-06-14T04:36:32;9.73;;;5.53;;
78053;SDS011;67726;45.636;11.752;2023-06-14T04:39:00;9.00;;;5.40;;
78053;SDS011;67726;45.636;11.752;2023-06-14T04:41:28;10.77;;;5.95;;
78053;SDS011;67726;45.636;11.752;2023-06-14T04:43:59;11.37;;;5.43;;
78053;SDS011;67726;45.636;11.752;2023-06-14T04:46:29;9.10;;;5.15;;
78053;SDS011;67726;45.636;11.752;2023-06-14T04:48:57;11.57;;;5.47;;
78053;SDS011;67726;45.636;11.752;2023-06-14T04:51:27;10.20;;;5.75;;
78053;SDS011;67726;45.636;11.752;2023-06-14T04:53:57;10.32;;;5.85;;
78053;SDS011;67726;45.636;11.752;2023-06-14T04:56:23;9.40;;;5.03;;
78053;SDS011;67726;45.636;11.752;2023-06-14T04:58:50;10.18;;;5.30;;
78053;SDS011;67726;45.636;11.752;2023-06-14T05:01:17;8.02;;;4.50;;
78053;SDS011;67726;45.636;11.752;2023-06-14T05:03:44;9.02;;;5.25;;
78053;SDS011;67726;45.636;11.752;2023-06-14T05:06:10;8.02;;;4.72;;
78053;SDS011;67726;45.636;11.752;2023-06-14T05:08:37;10.00;;;4.90;;
78053;SDS011;67726;45.636;11.752;2023-06-14T05:11:02;9.35;;;4.90;;
78053;SDS011;67726;45.636;11.752;2023-06-14T05:13:28;9.25;;;4.78;;
78053;SDS011;67726;45.636;11.752;2023-06-14T05:15:54;7.87;;;4.53;;
78053;SDS011;67726;45.636;11.752;2023-06-14T05:18:19;8.67;;;5.00;;
78053;SDS011;67726;45.636;11.752;2023-06-14T05:20:45;9.52;;;4.90;;
78053;SDS011;67726;45.636;11.752;2023-06-14T05:23:11;9.35;;;4.80;;
78053;SDS011;67726;45.636;11.752;2023-06-14T05:25:40;10.20;;;5.00;;
78053;SDS011;67726;45.636;11.752;2023-06-14T05:28:08;8.95;;;4.72;;
78053;SDS011;67726;45.636;11.752;2023-06-14T05:30:34;8.98;;;4.55;;
78053;SDS011;67726;45.636;11.752;2023-06-14T05:33:00;8.43;;;4.90;;
78053;SDS011;67726;45.636;11.752;2023-06-14T05:35:26;8.73;;;4.77;;
78053;SDS011;67726;45.636;11.752;2023-06-14T05:37:52;8.73;;;4.72;;
78053;SDS011;67726;45.636;11.752;2023-06-14T05:40:18;10.90;;;5.30;;
78053;SDS011;67726;45.636;11.752;2023-06-14T05:42:45;8.88;;;5.18;;
78053;SDS011;67726;45.636;11.752;2023-06-14T05:45:10;8.00;;;4.85;;
78053;SDS011;67726;45.636;11.752;2023-06-14T05:47:36;9.63;;;4.93;;
78053;SDS011;67726;45.636;11.752;2023-06-14T05:50:02;8.40;;;4.15;;
78053;SDS011;67726;45.636;11.752;2023-06-14T05:52:28;6.95;;;3.67;;
78053;SDS011;67726;45.636;11.752;2023-06-14T05:54:54;8.00;;;4.23;;
78053;SDS011;67726;45.636;11.752;2023-06-14T05:57:20;8.35;;;3.80;;
78053;SDS011;67726;45.636;11.752;2023-06-14T05:59:46;7.57;;;3.85;;
78053;SDS011;67726;45.636;11.752;2023-06-14T06:02:12;6.93;;;3.73;;
78053;SDS011;67726;45.636;11.752;2023-06-14T06:04:37;7.05;;;3.72;;
78053;SDS011;67726;45.636;11.752;2023-06-14T06:07:03;6.33;;;3.50;;
78053;SDS011;67726;45.636;11.752;2023-06-14T06:09:29;5.95;;;3.20;;
78053;SDS011;67726;45.636;11.752;2023-06-14T06:11:55;8.25;;;3.33;;
78053;SDS011;67726;45.636;11.752;2023-06-14T06:14:20;6.27;;;3.40;;
78053;SDS011;67726;45.636;11.752;2023-06-14T06:16:46;8.10;;;3.30;;
78053;SDS011;67726;45.636;11.752;2023-06-14T06:19:12;5.60;;;2.95;;
78053;SDS011;67726;45.636;11.752;2023-06-14T06:21:37;6.90;;;3.00;;
78053;SDS011;67726;45.636;11.752;2023-06-14T06:24:04;6.90;;;3.13;;
78053;SDS011;67726;45.636;11.752;2023-06-14T06:26:31;6.72;;;3.20;;
78053;SDS011;67726;45.636;11.752;2023-06-14T06:28:57;6.73;;;2.80;;
78053;SDS011;67726;45.636;11.752;2023-06-14T06:31:23;7.20;;;3.33;;
78053;SDS011;67726;45.636;11.752;2023-06-14T06:33:50;5.57;;;2.90;;
78053;SDS011;67726;45.636;11.752;2023-06-14T06:36:16;6.55;;;3.10;;
78053;SDS011;67726;45.636;11.752;2023-06-14T06:38:42;7.33;;;3.30;;
78053;SDS011;67726;45.636;11.752;2023-06-14T06:41:08;5.82;;;2.85;;
78053;SDS011;67726;45.636;11.752;2023-06-14T06:43:33;5.83;;;2.60;;
78053;SDS011;67726;45.636;11.752;2023-06-14T06:45:59;7.23;;;3.00;;
78053;SDS011;67726;45.636;11.752;2023-06-14T06:48:24;6.93;;;2.80;;
78053;SDS011;67726;45.636;11.752;2023-06-14T06:50:50;6.75;;;2.90;;
78053;SDS011;67726;45.636;11.752;2023-06-14T06:53:17;6.07;;;2.70;;
78053;SDS011;67726;45.636;11.752;2023-06-14T06:55:43;6.22;;;2.80;;
78053;SDS011;67726;45.636;11.752;2023-06-14T06:58:09;7.13;;;3.28;;
78053;SDS011;67726;45.636;11.752;2023-06-14T07:00:35;5.00;;;2.80;;
78053;SDS011;67726;45.636;11.752;2023-06-14T07:03:00;6.35;;;3.17;;
78053;SDS011;67726;45.636;11.752;2023-06-14T07:05:28;8.43;;;3.05;;
78053;SDS011;67726;45.636;11.752;2023-06-14T07:07:54;5.72;;;2.85;;
78053;SDS011;67726;45.636;11.752;2023-06-14T07:10:20;5.87;;;3.20;;
78053;SDS011;67726;45.636;11.752;2023-06-14T07:12:46;7.45;;;3.05;;
78053;SDS011;67726;45.636;11.752;2023-06-14T07:15:12;5.93;;;3.10;;
78053;SDS011;67726;45.636;11.752;2023-06-14T07:17:37;6.57;;;3.03;;
78053;SDS011;67726;45.636;11.752;2023-06-14T07:20:03;5.70;;;2.73;;
78053;SDS011;67726;45.636;11.752;2023-06-14T07:22:49;7.25;;;3.00;;
78053;SDS011;67726;45.636;11.752;2023-06-14T07:25:15;6.37;;;2.80;;
78053;SDS011;67726;45.636;11.752;2023-06-14T07:27:41;5.93;;;3.20;;
78053;SDS011;67726;45.636;11.752;2023-06-14T07:30:08;8.52;;;3.50;;
78053;SDS011;67726;45.636;11.752;2023-06-14T07:32:34;6.55;;;3.30;;
78053;SDS011;67726;45.636;11.752;2023-06-14T07:34:59;7.20;;;3.67;;
78053;SDS011;67726;45.636;11.752;2023-06-14T07:37:25;6.53;;;3.50;;
78053;SDS011;67726;45.636;11.752;2023-06-14T07:39:51;7.10;;;3.33;;
78053;SDS011;67726;45.636;11.752;2023-06-14T07:42:16;6.60;;;3.90;;
78053;SDS011;67726;45.636;11.752;2023-06-14T07:44:42;6.60;;;3.70;;
78053;SDS011;67726;45.636;11.752;2023-06-14T07:47:08;8.23;;;3.90;;
78053;SDS011;67726;45.636;11.752;2023-06-14T07:49:33;8.73;;;4.20;;
78053;SDS011;67726;45.636;11.752;2023-06-14T07:51:59;7.77;;;3.90;;
78053;SDS011;67726;45.636;11.752;2023-06-14T07:54:25;6.00;;;3.40;;
78053;SDS011;67726;45.636;11.752;2023-06-14T07:56:51;8.00;;;3.67;;
78053;SDS011;67726;45.636;11.752;2023-06-14T07:59:17;7.60;;;3.70;;
78053;SDS011;67726;45.636;11.752;2023-06-14T08:01:43;6.60;;;3.55;;
78053;SDS011;67726;45.636;11.752;2023-06-14T08:04:16;6.50;;;3.30;;
78053;SDS011;67726;45.636;11.752;2023-06-14T08:06:41;7.30;;;3.53;;
78053;SDS011;67726;45.636;11.752;2023-06-14T08:09:10;7.50;;;3.50;;
78053;SDS011;67726;45.636;11.752;2023-06-14T08:11:37;8.00;;;3.70;;
78053;SDS011;67726;45.636;11.752;2023-06-14T08:14:03;8.18;;;3.90;;
78053;SDS011;67726;45.636;11.752;2023-06-14T08:16:29;7.50;;;3.90;;
78053;SDS011;67726;45.636;11.752;2023-06-14T08:18:55;8.25;;;4.05;;
78053;SDS011;67726;45.636;11.752;2023-06-14T08:21:20;10.40;;;3.97;;
78053;SDS011;67726;45.636;11.752;2023-06-14T08:23:46;6.63;;;3.45;;
78053;SDS011;67726;45.636;11.752;2023-06-14T08:26:12;6.72;;;3.78;;
78053;SDS011;67726;45.636;11.752;2023-06-14T08:28:38;7.05;;;3.30;;
78053;SDS011;67726;45.636;11.752;2023-06-14T08:31:04;8.50;;;3.40;;
78053;SDS011;67726;45.636;11.752;2023-06-14T08:33:30;8.38;;;3.20;;
78053;SDS011;67726;45.636;11.752;2023-06-14T08:35:58;5.63;;;3.30;;
78053;SDS011;67726;45.636;11.752;2023-06-14T08:38:24;6.80;;;3.30;;
78053;SDS011;67726;45.636;11.752;2023-06-14T08:40:50;6.60;;;3.15;;
78053;SDS011;67726;45.636;11.752;2023-06-14T08:43:17;7.20;;;3.17;;
78053;SDS011;67726;45.636;11.752;2023-06-14T08:45:44;6.03;;;2.92;;
78053;SDS011;67726;45.636;11.752;2023-06-14T08:48:11;7.90;;;3.38;;
78053;SDS011;67726;45.636;11.752;2023-06-14T08:50:42;6.65;;;3.03;;
78053;SDS011;67726;45.636;11.752;2023-06-14T08:53:11;6.65;;;3.50;;
78053;SDS011;67726;45.636;11.752;2023-06-14T08:55:44;6.60;;;3.10;;
78053;SDS011;67726;45.636;11.752;2023-06-14T08:58:10;6.55;;;3.13;;
78053;SDS011;67726;45.636;11.752;2023-06-14T09:00:39;7.35;;;3.70;;
78053;SDS011;67726;45.636;11.752;2023-06-14T09:03:08;6.28;;;3.50;;
78053;SDS011;67726;45.636;11.752;2023-06-14T09:05:38;7.63;;;3.60;;
78053;SDS011;67726;45.636;11.752;2023-06-14T09:08:04;10.50;;;3.72;;
78053;SDS011;67726;45.636;11.752;2023-06-14T09:10:30;14.40;;;3.90;;
78053;SDS011;67726;45.636;11.752;2023-06-14T09:13:00;7.25;;;3.75;;
78053;SDS011;67726;45.636;11.752;2023-06-14T09:15:26;7.30;;;3.60;;
78053;SDS011;67726;45.636;11.752;2023-06-14T09:17:52;7.90;;;3.60;;
78053;SDS011;67726;45.636;11.752;2023-06-14T09:20:18;8.63;;;3.60;;
78053;SDS011;67726;45.636;11.752;2023-06-14T09:22:44;7.07;;;3.70;;
78053;SDS011;67726;45.636;11.752;2023-06-14T09:25:10;6.00;;;3.53;;
78053;SDS011;67726;45.636;11.752;2023-06-14T09:27:40;7.85;;;3.65;;
78053;SDS011;67726;45.636;11.752;2023-06-14T09:30:08;7.05;;;3.58;;
78053;SDS011;67726;45.636;11.752;2023-06-14T09:32:37;7.17;;;3.77;;
78053;SDS011;67726;45.636;11.752;2023-06-14T09:35:05;8.40;;;3.85;;
78053;SDS011;67726;45.636;11.752;2023-06-14T09:37:33;7.18;;;3.97;;
78053;SDS011;67726;45.636;11.752;2023-06-14T09:40:00;8.77;;;3.65;;
78053;SDS011;67726;45.636;11.752;2023-06-14T09:42:26;7.03;;;3.75;;
78053;SDS011;67726;45.636;11.752;2023-06-14T09:44:53;10.87;;;3.50;;
78053;SDS011;67726;45.636;11.752;2023-06-14T09:47:21;7.97;;;3.85;;
78053;SDS011;67726;45.636;11.752;2023-06-14T09:49:48;7.72;;;3.58;;
78053;SDS011;67726;45.636;11.752;2023-06-14T09:52:17;5.97;;;3.30;;
78053;SDS011;67726;45.636;11.752;2023-06-14T09:54:44;6.97;;;3.40;;
78053;SDS011;67726;45.636;11.752;2023-06-14T09:57:23;7.03;;;3.47;;
78053;SDS011;67726;45.636;11.752;2023-06-14T09:59:52;6.60;;;3.40;;
78053;SDS011;67726;45.636;11.752;2023-06-14T10:02:22;6.22;;;3.47;;
78053;SDS011;67726;45.636;11.752;2023-06-14T10:04:56;6.60;;;3.60;;
78053;SDS011;67726;45.636;11.752;2023-06-14T10:07:30;7.88;;;3.40;;
78053;SDS011;67726;45.636;11.752;2023-06-14T10:10:18;6.30;;;3.80;;
78053;SDS011;67726;45.636;11.752;2023-06-14T10:12:44;6.95;;;3.92;;
78053;SDS011;67726;45.636;11.752;2023-06-14T10:15:12;6.95;;;3.65;;
78053;SDS011;67726;45.636;11.752;2023-06-14T10:18:07;6.03;;;3.83;;
78053;SDS011;67726;45.636;11.752;2023-06-14T10:21:01;6.88;;;3.53;;
78053;SDS011;67726;45.636;11.752;2023-06-14T10:23:41;7.30;;;3.53;;
78053;SDS011;67726;45.636;11.752;2023-06-14T10:26:08;7.40;;;4.05;;
78053;SDS011;67726;45.636;11.752;2023-06-14T10:28:36;8.48;;;4.10;;
78053;SDS011;67726;45.636;11.752;2023-06-14T10:31:03;7.88;;;3.97;;
78053;SDS011;67726;45.636;11.752;2023-06-14T10:34:20;6.77;;;3.90;;
78053;SDS011;67726;45.636;11.752;2023-06-14T10:41:53;8.85;;;4.05;;
78053;SDS011;67726;45.636;11.752;2023-06-14T10:46:46;7.47;;;4.13;;
78053;SDS011;67726;45.636;11.752;2023-06-14T10:49:12;9.75;;;4.47;;
78053;SDS011;67726;45.636;11.752;2023-06-14T10:51:44;7.28;;;3.90;;
78053;SDS011;67726;45.636;11.752;2023-06-14T10:54:20;7.93;;;3.83;;
78053;SDS011;67726;45.636;11.752;2023-06-14T10:56:46;7.22;;;3.70;;
78053;SDS011;67726;45.636;11.752;2023-06-14T10:59:13;7.47;;;3.78;;
78053;SDS011;67726;45.636;11.752;2023-06-14T11:02:02;8.43;;;3.67;;
78053;SDS011;67726;45.636;11.752;2023-06-14T11:04:55;6.95;;;3.35;;
78053;SDS011;67726;45.636;11.752;2023-06-14T11:12:31;7.30;;;3.40;;
78053;SDS011;67726;45.636;11.752;2023-06-14T11:14:58;7.28;;;3.30;;
78053;SDS011;67726;45.636;11.752;2023-06-14T11:17:24;6.72;;;3.50;;
78053;SDS011;67726;45.636;11.752;2023-06-14T11:19:55;9.07;;;3.30;;
78053;SDS011;67726;45.636;11.752;2023-06-14T11:22:41;8.05;;;3.40;;
78053;SDS011;67726;45.636;11.752;2023-06-14T11:25:13;8.18;;;3.40;;
78053;SDS011;67726;45.636;11.752;2023-06-14T11:27:42;8.88;;;3.47;;
78053;SDS011;67726;45.636;11.752;2023-06-14T11:30:09;7.35;;;3.17;;
78053;SDS011;67726;45.636;11.752;2023-06-14T11:32:35;6.07;;;3.27;;
78053;SDS011;67726;45.636;11.752;2023-06-14T11:35:02;8.02;;;4.00;;
78053;SDS011;67726;45.636;11.752;2023-06-14T11:37:30;9.15;;;3.78;;
78053;SDS011;67726;45.636;11.752;2023-06-14T11:39:58;6.72;;;3.03;;
78053;SDS011;67726;45.636;11.752;2023-06-14T11:42:29;7.22;;;3.60;;
78053;SDS011;67726;45.636;11.752;2023-06-14T11:44:55;7.80;;;3.53;;
78053;SDS011;67726;45.636;11.752;2023-06-14T11:47:21;7.45;;;3.38;;
78053;SDS011;67726;45.636;11.752;2023-06-14T11:49:47;6.43;;;3.35;;
78053;SDS011;67726;45.636;11.752;2023-06-14T11:52:13;8.03;;;3.43;;
78053;SDS011;67726;45.636;11.752;2023-06-14T11:54:39;6.78;;;3.33;;
78053;SDS011;67726;45.636;11.752;2023-06-14T11:57:09;8.13;;;3.13;;
78053;SDS011;67726;45.636;11.752;2023-06-14T11:59:39;7.97;;;3.67;;
78053;SDS011;67726;45.636;11.752;2023-06-14T12:02:05;7.65;;;3.67;;
78053;SDS011;67726;45.636;11.752;2023-06-14T12:04:31;6.83;;;3.70;;
78053;SDS011;67726;45.636;11.752;2023-06-14T12:07:08;7.13;;;3.92;;
78053;SDS011;67726;45.636;11.752;2023-06-14T12:09:37;8.25;;;3.60;;
78053;SDS011;67726;45.636;11.752;2023-06-14T12:12:02;7.93;;;3.70;;
78053;SDS011;67726;45.636;11.752;2023-06-14T12:14:31;6.80;;;3.67;;
78053;SDS011;67726;45.636;11.752;2023-06-14T12:17:03;6.85;;;3.30;;
78053;SDS011;67726;45.636;11.752;2023-06-14T12:19:33;6.22;;;3.60;;
78053;SDS011;67726;45.636;11.752;2023-06-14T12:22:07;8.07;;;3.38;;
78053;SDS011;67726;45.636;11.752;2023-06-14T12:24:38;8.53;;;3.50;;
78053;SDS011;67726;45.636;11.752;2023-06-14T12:27:04;7.93;;;3.53;;
78053;SDS011;67726;45.636;11.752;2023-06-14T12:29:30;6.68;;;3.35;;
78053;SDS011;67726;45.636;11.752;2023-06-14T12:31:57;7.55;;;3.45;;
78053;SDS011;67726;45.636;11.752;2023-06-14T12:34:29;7.80;;;3.85;;
78053;SDS011;67726;45.636;11.752;2023-06-14T12:36:56;6.87;;;3.70;;
78053;SDS011;67726;45.636;11.752;2023-06-14T12:39:22;7.22;;;3.30;;
78053;SDS011;67726;45.636;11.752;2023-06-14T12:41:50;6.72;;;3.22;;
78053;SDS011;67726;45.636;11.752;2023-06-14T12:44:16;6.70;;;3.77;;
78053;SDS011;67726;45.636;11.752;2023-06-14T12:46:42;7.38;;;3.58;;
78053;SDS011;67726;45.636;11.752;2023-06-14T12:49:09;7.47;;;3.58;;
78053;SDS011;67726;45.636;11.752;2023-06-14T12:51:36;6.70;;;3.35;;
78053;SDS011;67726;45.636;11.752;2023-06-14T12:54:02;8.17;;;3.83;;
78053;SDS011;67726;45.636;11.752;2023-06-14T12:56:27;6.72;;;3.63;;
78053;SDS011;67726;45.636;11.752;2023-06-14T12:58:53;7.47;;;3.97;;
78053;SDS011;67726;45.636;11.752;2023-06-14T13:01:19;6.90;;;3.50;;
78053;SDS011;67726;45.636;11.752;2023-06-14T13:03:45;6.47;;;3.40;;
78053;SDS011;67726;45.636;11.752;2023-06-14T13:06:12;7.20;;;3.57;;
78053;SDS011;67726;45.636;11.752;2023-06-14T13:08:38;8.48;;;4.13;;
78053;SDS011;67726;45.636;11.752;2023-06-14T13:11:03;6.63;;;3.60;;
78053;SDS011;67726;45.636;11.752;2023-06-14T13:13:29;9.63;;;3.63;;
78053;SDS011;67726;45.636;11.752;2023-06-14T13:15:55;7.63;;;3.60;;
78053;SDS011;67726;45.636;11.752;2023-06-14T13:18:20;6.67;;;3.10;;
78053;SDS011;67726;45.636;11.752;2023-06-14T13:20:46;6.38;;;3.60;;
78053;SDS011;67726;45.636;11.752;2023-06-14T13:23:12;8.73;;;3.20;;
78053;SDS011;67726;45.636;11.752;2023-06-14T13:25:38;6.40;;;3.75;;
78053;SDS011;67726;45.636;11.752;2023-06-14T13:28:05;6.32;;;3.38;;
78053;SDS011;67726;45.636;11.752;2023-06-14T13:30:31;8.20;;;3.72;;
78053;SDS011;67726;45.636;11.752;2023-06-14T13:32:57;7.10;;;3.72;;
78053;SDS011;67726;45.636;11.752;2023-06-14T13:35:23;6.87;;;3.40;;
78053;SDS011;67726;45.636;11.752;2023-06-14T13:37:50;6.68;;;3.40;;
78053;SDS011;67726;45.636;11.752;2023-06-14T13:40:15;13.00;;;4.82;;
78053;SDS011;67726;45.636;11.752;2023-06-14T13:42:41;8.17;;;3.50;;
78053;SDS011;67726;45.636;11.752;2023-06-14T13:45:07;6.78;;;3.22;;
78053;SDS011;67726;45.636;11.752;2023-06-14T13:47:35;10.43;;;3.35;;
78053;SDS011;67726;45.636;11.752;2023-06-14T13:50:01;6.87;;;3.00;;
78053;SDS011;67726;45.636;11.752;2023-06-14T13:52:28;6.45;;;3.40;;
78053;SDS011;67726;45.636;11.752;2023-06-14T13:54:53;6.45;;;3.40;;
78053;SDS011;67726;45.636;11.752;2023-06-14T13:57:19;6.97;;;3.53;;
78053;SDS011;67726;45.636;11.752;2023-06-14T13:59:45;8.27;;;3.72;;
78053;SDS011;67726;45.636;11.752;2023-06-14T14:02:11;6.83;;;3.43;;
78053;SDS011;67726;45.636;11.752;2023-06-14T14:04:37;9.13;;;3.38;;
78053;SDS011;67726;45.636;11.752;2023-06-14T14:07:03;6.80;;;3.75;;
78053;SDS011;67726;45.636;11.752;2023-06-14T14:09:29;6.88;;;3.70;;
78053;SDS011;67726;45.636;11.752;2023-06-14T14:11:55;9.47;;;3.40;;
78053;SDS011;67726;45.636;11.752;2023-06-14T14:14:21;6.65;;;3.38;;
78053;SDS011;67726;45.636;11.752;2023-06-14T14:16:48;9.85;;;3.78;;
78053;SDS011;67726;45.636;11.752;2023-06-14T14:19:16;8.15;;;3.60;;
78053;SDS011;67726;45.636;11.752;2023-06-14T14:21:44;7.22;;;3.30;;
78053;SDS011;67726;45.636;11.752;2023-06-14T14:24:10;7.47;;;3.60;;
78053;SDS011;67726;45.636;11.752;2023-06-14T14:26:35;5.97;;;3.30;;
78053;SDS011;67726;45.636;11.752;2023-06-14T14:29:01;9.67;;;3.67;;
78053;SDS011;67726;45.636;11.752;2023-06-14T14:31:27;7.45;;;3.03;;
78053;SDS011;67726;45.636;11.752;2023-06-14T14:33:53;8.88;;;3.60;;
78053;SDS011;67726;45.636;11.752;2023-06-14T14:36:19;8.27;;;3.27;;
78053;SDS011;67726;45.636;11.752;2023-06-14T14:38:45;7.25;;;3.78;;
78053;SDS011;67726;45.636;11.752;2023-06-14T14:41:12;6.50;;;3.38;;
78053;SDS011;67726;45.636;11.752;2023-06-14T14:43:37;7.43;;;3.73;;
78053;SDS011;67726;45.636;11.752;2023-06-14T14:46:03;6.05;;;3.42;;
78053;SDS011;67726;45.636;11.752;2023-06-14T14:48:29;7.17;;;4.00;;